createdAt,value
2018-12-14T00:00:31.987Z,0.90
2018-12-14T00:03:01.215Z,0.90
2018-12-14T00:05:30.200Z,0.90
2018-12-14T00:07:58.931Z,0.80
2018-12-14T00:10:27.680Z,0.90
2018-12-14T00:12:56.406Z,0.90
2018-12-14T00:15:25.473Z,0.80
2018-12-14T00:17:55.087Z,0.90
2018-12-14T00:20:23.796Z,0.80
2018-12-14T00:22:52.686Z,0.90
2018-12-14T00:25:21.474Z,0.90
2018-12-14T00:27:50.263Z,0.80
2018-12-14T00:30:18.903Z,0.80
2018-12-14T00:32:48.073Z,0.80
2018-12-14T00:35:17.551Z,0.80
2018-12-14T00:37:46.235Z,0.80
2018-12-14T00:40:15.092Z,0.80
2018-12-14T00:42:43.852Z,0.80
2018-12-14T00:45:12.748Z,0.80
2018-12-14T00:47:41.426Z,0.80
2018-12-14T00:50:10.583Z,0.80
2018-12-14T00:52:39.306Z,0.80
2018-12-14T00:55:08.657Z,0.80
2018-12-14T00:57:37.588Z,0.80
2018-12-14T01:00:08.400Z,0.80
2018-12-14T01:02:37.193Z,0.80
2018-12-14T01:05:06.987Z,0.80
2018-12-14T01:07:35.634Z,0.80
2018-12-14T01:10:04.812Z,0.80
2018-12-14T01:12:33.432Z,0.80
2018-12-14T01:15:02.253Z,0.80
2018-12-14T01:17:31.041Z,0.80
2018-12-14T01:19:59.668Z,0.80
2018-12-14T01:22:28.344Z,0.80
2018-12-14T01:24:56.968Z,0.90
2018-12-14T01:27:25.682Z,0.90
2018-12-14T01:29:54.398Z,0.80
2018-12-14T01:32:23.012Z,0.80
2018-12-14T01:34:51.740Z,0.90
2018-12-14T01:37:20.456Z,0.80
2018-12-14T01:39:50.028Z,0.80
2018-12-14T01:42:18.767Z,0.80
2018-12-14T01:44:47.382Z,0.80
2018-12-14T01:47:16.241Z,0.80
2018-12-14T01:49:44.927Z,0.80
2018-12-14T01:52:13.538Z,0.80
2018-12-14T01:54:42.251Z,0.80
2018-12-14T01:57:10.832Z,0.80
2018-12-14T01:59:39.725Z,0.70
2018-12-14T02:02:08.346Z,0.70
2018-12-14T02:04:36.961Z,0.80
2018-12-14T02:07:05.623Z,0.70
2018-12-14T02:09:34.741Z,0.70
2018-12-14T02:12:03.560Z,0.70
2018-12-14T02:14:32.246Z,0.70
2018-12-14T02:17:00.858Z,0.70
2018-12-14T02:19:29.540Z,0.60
2018-12-14T02:21:58.405Z,0.60
2018-12-14T02:24:27.091Z,0.60
2018-12-14T02:26:55.835Z,0.60
2018-12-14T02:29:24.568Z,0.60
2018-12-14T02:31:53.249Z,0.60
2018-12-14T02:34:22.270Z,0.50
2018-12-14T02:36:51.240Z,0.50
2018-12-14T02:39:20.157Z,0.50
2018-12-14T02:41:48.763Z,0.50
2018-12-14T02:44:17.314Z,0.40
2018-12-14T02:46:46.376Z,0.40
2018-12-14T02:49:15.407Z,0.40
2018-12-14T02:51:44.093Z,0.40
2018-12-14T02:54:12.749Z,0.40
2018-12-14T02:56:41.545Z,0.40
2018-12-14T02:59:10.119Z,0.40
2018-12-14T03:01:38.950Z,0.50
2018-12-14T03:04:07.545Z,0.40
2018-12-14T03:06:36.327Z,0.40
2018-12-14T03:09:06.695Z,0.40
2018-12-14T03:11:35.294Z,0.40
2018-12-14T03:14:03.951Z,0.30
2018-12-14T03:16:32.584Z,0.40
2018-12-14T03:19:01.239Z,0.30
2018-12-14T03:21:30.094Z,0.40
2018-12-14T03:23:59.574Z,0.30
2018-12-14T03:26:28.228Z,0.30
2018-12-14T03:28:56.951Z,0.30
2018-12-14T03:31:26.011Z,0.30
2018-12-14T03:33:54.606Z,0.30
2018-12-14T03:36:23.495Z,0.30
2018-12-14T03:38:52.219Z,0.30
2018-12-14T03:41:21.061Z,0.30
2018-12-14T03:43:49.664Z,0.20
2018-12-14T03:46:18.584Z,0.20
2018-12-14T03:48:47.329Z,0.30
2018-12-14T03:51:18.100Z,0.30
2018-12-14T03:53:46.795Z,0.20
2018-12-14T03:56:15.655Z,0.20
2018-12-14T03:58:44.478Z,0.30
2018-12-14T04:01:13.289Z,0.30
2018-12-14T04:03:42.356Z,0.30
2018-12-14T04:06:11.097Z,0.20
2018-12-14T04:08:39.881Z,0.20
2018-12-14T04:11:09.038Z,0.20
2018-12-14T04:13:37.803Z,0.20
2018-12-14T04:16:06.525Z,0.20
2018-12-14T04:18:35.265Z,0.20
2018-12-14T04:21:04.151Z,0.20
2018-12-14T04:23:33.012Z,0.20
2018-12-14T04:26:01.626Z,0.20
2018-12-14T04:28:30.327Z,0.20
2018-12-14T04:30:59.287Z,0.20
2018-12-14T04:33:28.497Z,0.20
2018-12-14T04:35:57.450Z,0.20
2018-12-14T04:38:26.364Z,0.10
2018-12-14T04:40:55.161Z,0.10
2018-12-14T04:43:24.048Z,0.10
2018-12-14T04:45:52.733Z,0.10
2018-12-14T04:48:21.410Z,0.10
2018-12-14T04:50:50.209Z,0.10
2018-12-14T04:53:18.852Z,0.10
2018-12-14T04:55:47.712Z,0.10
2018-12-14T04:58:17.424Z,0.20
2018-12-14T05:00:46.384Z,0.20
2018-12-14T05:03:15.276Z,0.20
2018-12-14T05:05:44.007Z,0.20
2018-12-14T05:08:12.715Z,0.20
2018-12-14T05:10:41.338Z,0.20
2018-12-14T05:13:09.959Z,0.20
2018-12-14T05:15:38.572Z,0.20
2018-12-14T05:18:07.384Z,0.30
2018-12-14T05:20:37.095Z,0.20
2018-12-14T05:23:05.860Z,0.20
2018-12-14T05:25:34.437Z,0.20
2018-12-14T05:28:03.153Z,0.20
2018-12-14T05:30:32.142Z,0.30
2018-12-14T05:33:00.802Z,0.20
2018-12-14T05:35:29.487Z,0.20
2018-12-14T05:37:58.040Z,0.20
2018-12-14T05:40:26.577Z,0.20
2018-12-14T05:42:55.587Z,0.20
2018-12-14T05:45:24.366Z,0.20
2018-12-14T05:47:53.014Z,0.20
2018-12-14T05:50:21.868Z,0.20
2018-12-14T05:52:50.646Z,0.10
2018-12-14T05:55:19.285Z,0.10
2018-12-14T05:57:47.822Z,0.10
2018-12-14T06:00:16.477Z,0.10
2018-12-14T06:02:45.368Z,0.10
2018-12-14T06:05:14.082Z,0.10
2018-12-14T06:07:42.678Z,0.10
2018-12-14T06:10:11.337Z,0.10
2018-12-14T06:12:40.001Z,0.00
2018-12-14T06:15:08.732Z,0.00
2018-12-14T06:17:37.479Z,0.00
2018-12-14T06:20:07.374Z,-0.10
2018-12-14T06:22:36.015Z,-0.10
2018-12-14T06:25:05.379Z,-0.10
2018-12-14T06:27:34.336Z,-0.20
2018-12-14T06:30:03.277Z,-0.20
2018-12-14T06:32:33.013Z,-0.20
2018-12-14T06:35:01.576Z,-0.20
2018-12-14T06:37:30.622Z,-0.20
2018-12-14T06:39:59.307Z,-0.30
2018-12-14T06:42:27.901Z,-0.30
2018-12-14T06:44:57.219Z,-0.30
2018-12-14T06:47:27.338Z,-0.30
2018-12-14T06:49:56.146Z,-0.30
2018-12-14T06:52:24.862Z,-0.30
2018-12-14T06:54:53.776Z,-0.30
2018-12-14T06:57:22.797Z,-0.30
2018-12-14T06:59:51.585Z,-0.30
2018-12-14T07:02:20.309Z,-0.40
2018-12-14T07:04:49.423Z,-0.30
2018-12-14T07:07:17.979Z,-0.30
2018-12-14T07:09:46.760Z,-0.30
2018-12-14T07:12:15.316Z,-0.30
2018-12-14T07:14:43.939Z,-0.30
2018-12-14T07:17:12.735Z,-0.30
2018-12-14T07:19:42.055Z,-0.40
2018-12-14T07:22:10.821Z,-0.40
2018-12-14T07:24:39.464Z,-0.40
2018-12-14T07:27:09.334Z,-0.30
2018-12-14T07:29:38.063Z,-0.40
2018-12-14T07:32:07.000Z,-0.40
2018-12-14T07:34:35.599Z,-0.40
2018-12-14T07:37:04.387Z,-0.50
2018-12-14T07:39:33.040Z,-0.50
2018-12-14T07:42:01.798Z,-0.50
2018-12-14T07:44:30.581Z,-0.50
2018-12-14T07:46:59.890Z,-0.50
2018-12-14T07:49:28.573Z,-0.60
2018-12-14T07:51:57.361Z,-0.60
2018-12-14T07:54:26.064Z,-0.60
2018-12-14T07:56:55.710Z,-0.50
2018-12-14T07:59:24.735Z,-0.50
2018-12-14T08:01:53.640Z,-0.50
2018-12-14T08:04:23.190Z,-0.50
2018-12-14T08:06:51.758Z,-0.50
2018-12-14T08:09:20.651Z,-0.50
2018-12-14T08:11:49.263Z,-0.50
2018-12-14T08:14:17.994Z,-0.40
2018-12-14T08:16:46.866Z,-0.40
2018-12-14T08:19:15.467Z,-0.40
2018-12-14T08:21:44.228Z,-0.40
2018-12-14T08:24:12.979Z,-0.40
2018-12-14T08:26:41.889Z,-0.40
2018-12-14T08:29:10.545Z,-0.40
2018-12-14T08:31:39.302Z,-0.50
2018-12-14T08:34:07.874Z,-0.40
2018-12-14T08:36:36.493Z,-0.40
2018-12-14T08:39:07.058Z,-0.40
2018-12-14T08:41:35.747Z,-0.40
2018-12-14T08:44:04.993Z,-0.40
2018-12-14T08:46:34.854Z,-0.40
2018-12-14T08:49:03.702Z,-0.40
2018-12-14T08:51:32.303Z,-0.40
2018-12-14T08:54:00.915Z,-0.30
2018-12-14T08:56:29.642Z,-0.30
2018-12-14T08:58:58.260Z,-0.30
2018-12-14T09:01:27.074Z,-0.40
2018-12-14T09:03:55.881Z,-0.30
2018-12-14T09:06:24.794Z,-0.40
2018-12-14T09:08:53.516Z,-0.40
2018-12-14T09:11:22.209Z,-0.40
2018-12-14T09:13:50.756Z,-0.40
2018-12-14T09:16:19.537Z,-0.30
2018-12-14T09:18:48.231Z,-0.30
2018-12-14T09:21:17.356Z,-0.30
2018-12-14T09:23:46.107Z,-0.30
2018-12-14T09:26:14.676Z,-0.30
2018-12-14T09:28:43.586Z,-0.30
2018-12-14T09:31:12.269Z,-0.30
2018-12-14T09:33:41.002Z,-0.30
2018-12-14T09:36:09.843Z,-0.30
2018-12-14T09:38:38.698Z,-0.30
2018-12-14T09:41:07.624Z,-0.20
2018-12-14T09:43:36.219Z,-0.20
2018-12-14T09:46:05.441Z,-0.30
2018-12-14T09:48:34.294Z,-0.30
2018-12-14T09:51:03.197Z,-0.30
2018-12-14T09:53:31.733Z,-0.30
2018-12-14T09:56:01.252Z,-0.30
2018-12-14T09:58:29.869Z,-0.30
2018-12-14T10:00:58.651Z,-0.30
2018-12-14T10:03:27.348Z,-0.20
2018-12-14T10:05:56.578Z,-0.30
2018-12-14T10:08:25.712Z,-0.20
2018-12-14T10:10:54.727Z,-0.30
2018-12-14T10:13:24.108Z,-0.20
2018-12-14T10:15:53.913Z,-0.20
2018-12-14T10:18:22.724Z,-0.20
2018-12-14T10:20:51.508Z,-0.20
2018-12-14T10:23:20.219Z,-0.20
2018-12-14T10:25:48.882Z,-0.20
2018-12-14T10:28:18.491Z,-0.20
2018-12-14T10:30:47.173Z,-0.30
2018-12-14T10:33:15.831Z,-0.30
2018-12-14T10:35:44.426Z,-0.30
2018-12-14T10:38:13.047Z,-0.30
2018-12-14T10:40:42.021Z,-0.30
2018-12-14T10:43:10.631Z,-0.30
2018-12-14T10:45:39.592Z,-0.30
2018-12-14T10:48:08.145Z,-0.30
2018-12-14T10:50:39.753Z,-0.30
2018-12-14T10:53:12.922Z,-0.30
2018-12-14T10:55:41.914Z,-0.30
2018-12-14T10:58:10.703Z,-0.40
2018-12-14T11:00:44.896Z,-0.30
2018-12-14T11:03:13.452Z,-0.40
2018-12-14T11:05:42.015Z,-0.40
2018-12-14T11:08:10.668Z,-0.40
2018-12-14T11:10:39.355Z,-0.40
2018-12-14T11:13:08.198Z,-0.40
2018-12-14T11:15:36.778Z,-0.40
2018-12-14T11:18:05.364Z,-0.40
2018-12-14T11:20:34.587Z,-0.40
2018-12-14T11:23:03.295Z,-0.40
2018-12-14T11:25:32.067Z,-0.40
2018-12-14T11:28:00.792Z,-0.40
2018-12-14T11:30:29.437Z,-0.50
2018-12-14T11:32:58.041Z,-0.40
2018-12-14T11:35:26.928Z,-0.40
2018-12-14T11:37:55.607Z,-0.40
2018-12-14T11:40:24.282Z,-0.40
2018-12-14T11:42:52.867Z,-0.30
2018-12-14T11:45:21.512Z,-0.40
2018-12-14T11:47:50.258Z,-0.40
2018-12-14T11:50:19.115Z,-0.40
2018-12-14T11:52:48.639Z,-0.40
2018-12-14T11:55:17.502Z,-0.40
2018-12-14T11:57:46.224Z,-0.40
2018-12-14T12:00:15.218Z,-0.30
2018-12-14T12:02:43.845Z,-0.30
2018-12-14T12:05:12.623Z,-0.30
2018-12-14T12:07:42.464Z,-0.30
2018-12-14T12:10:11.505Z,-0.20
2018-12-14T12:12:40.462Z,-0.20
2018-12-14T12:15:09.711Z,-0.20
2018-12-14T12:17:39.596Z,-0.10
2018-12-14T12:20:09.325Z,-0.10
2018-12-14T12:22:38.093Z,-0.20
2018-12-14T12:25:06.729Z,-0.10
2018-12-14T12:27:35.574Z,-0.20
2018-12-14T12:30:05.046Z,-0.10
2018-12-14T12:32:34.040Z,-0.20
2018-12-14T12:35:02.591Z,-0.20
2018-12-14T12:37:31.343Z,-0.20
2018-12-14T12:40:00.094Z,-0.20
2018-12-14T12:42:28.693Z,-0.20
2018-12-14T12:44:57.350Z,-0.20
2018-12-14T12:47:26.088Z,-0.30
2018-12-14T12:49:54.822Z,-0.20
2018-12-14T12:52:23.480Z,-0.20
2018-12-14T12:54:52.343Z,-0.20
2018-12-14T12:57:21.242Z,-0.20
2018-12-14T12:59:49.898Z,-0.20
2018-12-14T13:02:18.550Z,-0.20
2018-12-14T13:04:47.603Z,-0.20
2018-12-14T13:07:16.762Z,-0.20
2018-12-14T13:09:45.539Z,-0.20
2018-12-14T13:12:14.375Z,-0.20
2018-12-14T13:14:43.286Z,-0.10
2018-12-14T13:17:12.185Z,-0.20
2018-12-14T13:19:41.059Z,-0.10
2018-12-14T13:22:09.939Z,-0.20
2018-12-14T13:24:38.729Z,-0.20
2018-12-14T13:27:07.328Z,-0.20
2018-12-14T13:29:36.787Z,-0.20
2018-12-14T13:32:05.732Z,-0.10
2018-12-14T13:34:34.492Z,-0.10
2018-12-14T13:37:03.539Z,-0.10
2018-12-14T13:39:32.333Z,-0.10
2018-12-14T13:42:01.122Z,-0.10
2018-12-14T13:44:30.185Z,-0.10
2018-12-14T13:46:59.067Z,-0.10
2018-12-14T13:49:27.798Z,-0.20
2018-12-14T13:51:56.614Z,-0.20
2018-12-14T13:54:25.408Z,-0.20
2018-12-14T13:56:54.016Z,-0.20
2018-12-14T13:59:22.861Z,-0.20
2018-12-14T14:01:51.672Z,-0.20
2018-12-14T14:04:20.228Z,-0.20
2018-12-14T14:06:48.999Z,-0.30
2018-12-14T14:09:17.677Z,-0.30
2018-12-14T14:11:46.264Z,-0.20
2018-12-14T14:14:15.011Z,-0.30
2018-12-14T14:16:43.785Z,-0.20
2018-12-14T14:19:12.700Z,-0.30
2018-12-14T14:21:41.483Z,-0.30
2018-12-14T14:24:10.570Z,-0.30
2018-12-14T14:26:44.481Z,-0.40
2018-12-14T14:29:10.512Z,-0.40
2018-12-14T14:31:39.437Z,-0.30
2018-12-14T14:34:08.272Z,-0.30
2018-12-14T14:36:37.005Z,-0.30
2018-12-14T14:39:07.355Z,-0.30
2018-12-14T14:41:36.320Z,-0.30
2018-12-14T14:44:05.076Z,-0.40
2018-12-14T14:46:33.636Z,-0.30
2018-12-14T14:49:03.372Z,-0.40
2018-12-14T14:51:32.566Z,-0.40
2018-12-14T14:54:01.411Z,-0.40
2018-12-14T14:56:31.173Z,-0.40
2018-12-14T14:58:59.839Z,-0.40
2018-12-14T15:01:28.570Z,-0.40
2018-12-14T15:03:57.347Z,-0.40
2018-12-14T15:06:26.105Z,-0.40
2018-12-14T15:08:55.446Z,-0.40
2018-12-14T15:11:24.042Z,-0.50
2018-12-14T15:13:52.570Z,-0.50
2018-12-14T15:16:21.425Z,-0.50
2018-12-14T15:18:50.249Z,-0.50
2018-12-14T15:21:18.917Z,-0.50
2018-12-14T15:23:47.707Z,-0.50
2018-12-14T15:26:16.409Z,-0.60
2018-12-14T15:28:45.445Z,-0.60
2018-12-14T15:31:14.394Z,-0.60
2018-12-14T15:33:43.118Z,-0.60
2018-12-14T15:36:12.175Z,-0.60
2018-12-14T15:38:40.949Z,-0.60
2018-12-14T15:41:09.783Z,-0.70
2018-12-14T15:43:38.848Z,-0.70
2018-12-14T15:46:08.453Z,-0.80
2018-12-14T15:48:37.311Z,-0.80
2018-12-14T15:51:05.874Z,-0.80
2018-12-14T15:53:34.716Z,-0.80
2018-12-14T15:56:03.373Z,-0.80
2018-12-14T15:58:32.386Z,-0.80
2018-12-14T16:01:01.490Z,-0.70
2018-12-14T16:03:30.639Z,-0.80
2018-12-14T16:05:59.634Z,-0.70
2018-12-14T16:08:29.393Z,-0.70
2018-12-14T16:10:58.176Z,-0.70
2018-12-14T16:13:27.105Z,-0.70
2018-12-14T16:15:56.007Z,-0.70
2018-12-14T16:18:25.158Z,-0.70
2018-12-14T16:20:54.057Z,-0.80
2018-12-14T16:23:23.042Z,-0.80
2018-12-14T16:25:51.835Z,-0.80
2018-12-14T16:28:20.754Z,-0.80
2018-12-14T16:30:49.719Z,-0.80
2018-12-14T16:33:18.505Z,-0.80
2018-12-14T16:35:47.323Z,-0.80
2018-12-14T16:38:15.948Z,-0.90
2018-12-14T16:40:44.719Z,-0.90
2018-12-14T16:43:13.604Z,-0.90
2018-12-14T16:45:42.370Z,-0.90
2018-12-14T16:48:11.130Z,-0.90
2018-12-14T16:50:40.395Z,-0.90
2018-12-14T16:53:09.153Z,-0.90
2018-12-14T16:55:39.155Z,-0.90
2018-12-14T16:58:09.147Z,-0.90
2018-12-14T17:00:37.942Z,-0.90
2018-12-14T17:03:07.028Z,-0.90
2018-12-14T17:05:35.924Z,-0.90
2018-12-14T17:08:04.610Z,-0.90
2018-12-14T17:10:33.710Z,-0.90
2018-12-14T17:13:02.625Z,-0.90
2018-12-14T17:15:33.424Z,-0.90
2018-12-14T17:18:01.986Z,-0.90
2018-12-14T17:20:30.546Z,-0.90
2018-12-14T17:22:59.441Z,-0.90
2018-12-14T17:25:28.276Z,-1.00
2018-12-14T17:27:57.262Z,-0.90
2018-12-14T17:30:26.722Z,-0.90
2018-12-14T17:32:55.502Z,-0.90
2018-12-14T17:35:24.153Z,-0.90
2018-12-14T17:37:53.154Z,-0.90
2018-12-14T17:40:21.979Z,-0.90
2018-12-14T17:42:50.596Z,-0.90
2018-12-14T17:45:19.160Z,-0.90
2018-12-14T17:47:47.917Z,-0.90
2018-12-14T17:50:16.725Z,-0.90
2018-12-14T17:52:45.401Z,-0.90
2018-12-14T17:55:14.012Z,-0.90
2018-12-14T17:57:42.716Z,-0.90
2018-12-14T18:00:11.967Z,-0.90
2018-12-14T18:02:42.059Z,-0.90
2018-12-14T18:05:10.643Z,-0.90
2018-12-14T18:07:40.180Z,-0.80
2018-12-14T18:10:08.917Z,-0.80
2018-12-14T18:12:37.522Z,-0.80
2018-12-14T18:15:06.783Z,-0.80
2018-12-14T18:17:35.591Z,-0.80
2018-12-14T18:20:05.354Z,-0.80
2018-12-14T18:22:34.019Z,-0.80
2018-12-14T18:25:02.977Z,-0.80
2018-12-14T18:27:31.586Z,-0.80
2018-12-14T18:30:00.626Z,-0.80
2018-12-14T18:32:29.545Z,-0.80
2018-12-14T18:34:59.458Z,-0.80
2018-12-14T18:37:28.339Z,-0.80
2018-12-14T18:39:57.094Z,-0.80
2018-12-14T18:42:26.135Z,-0.80
2018-12-14T18:44:55.241Z,-0.80
2018-12-14T18:47:24.324Z,-0.80
2018-12-14T18:49:53.209Z,-0.70
2018-12-14T18:52:21.846Z,-0.70
2018-12-14T18:54:50.683Z,-0.70
2018-12-14T18:57:19.271Z,-0.70
2018-12-14T18:59:48.401Z,-0.70
2018-12-14T19:02:17.153Z,-0.70
2018-12-14T19:04:46.090Z,-0.70
2018-12-14T19:07:14.956Z,-0.60
2018-12-14T19:09:43.703Z,-0.60
2018-12-14T19:12:12.553Z,-0.60
2018-12-14T19:14:41.395Z,-0.60
2018-12-14T19:17:10.073Z,-0.60
2018-12-14T19:19:38.639Z,-0.70
2018-12-14T19:22:07.503Z,-0.70
2018-12-14T19:24:36.349Z,-0.70
2018-12-14T19:27:05.204Z,-0.70
2018-12-14T19:29:33.924Z,-0.70
2018-12-14T19:32:02.659Z,-0.70
2018-12-14T19:34:31.629Z,-0.70
2018-12-14T19:37:00.427Z,-0.70
2018-12-14T19:39:29.379Z,-0.70
2018-12-14T19:41:58.274Z,-0.70
2018-12-14T19:44:27.282Z,-0.70
2018-12-14T19:46:56.108Z,-0.70
2018-12-14T19:49:24.866Z,-0.70
2018-12-14T19:51:53.589Z,-0.70
2018-12-14T19:54:22.523Z,-0.80
2018-12-14T19:56:51.538Z,-0.80
2018-12-14T19:59:20.285Z,-0.70
2018-12-14T20:01:49.197Z,-0.70
2018-12-14T20:04:18.127Z,-0.80
2018-12-14T20:06:48.193Z,-0.80
2018-12-14T20:09:17.644Z,-0.70
2018-12-14T20:11:51.756Z,-0.70
2018-12-14T20:14:21.959Z,-0.70
2018-12-14T20:16:54.363Z,-0.70
2018-12-14T20:19:23.406Z,-0.70
2018-12-14T20:21:52.518Z,-0.70
2018-12-14T20:24:21.292Z,-0.70
2018-12-14T20:26:51.167Z,-0.70
2018-12-14T20:29:20.486Z,-0.60
2018-12-14T20:31:53.006Z,-0.60
2018-12-14T20:34:23.450Z,-0.60
2018-12-14T20:37:05.959Z,-0.60
2018-12-14T20:39:36.199Z,-0.70
2018-12-14T20:42:06.613Z,-0.60
2018-12-14T20:44:36.960Z,-0.60
2018-12-14T20:47:06.363Z,-0.60
2018-12-14T20:49:37.774Z,-0.70
2018-12-14T20:52:12.235Z,-0.70
2018-12-14T20:54:41.475Z,-0.60
2018-12-14T20:57:11.774Z,-0.60
2018-12-14T20:59:53.909Z,-0.60
2018-12-14T21:02:24.008Z,-0.60
2018-12-14T21:05:06.883Z,-0.60
2018-12-14T21:07:36.655Z,-0.60
2018-12-14T21:10:06.731Z,-0.60
2018-12-14T21:12:36.484Z,-0.60
2018-12-14T21:15:06.904Z,-0.60
2018-12-14T21:17:37.713Z,-0.60
2018-12-14T21:20:07.901Z,-0.50
2018-12-14T21:22:37.861Z,-0.50
2018-12-14T21:25:08.857Z,-0.60
2018-12-14T21:27:39.650Z,-0.50
2018-12-14T21:30:10.104Z,-0.50
2018-12-14T21:32:39.649Z,-0.50
2018-12-14T21:35:08.789Z,-0.50
2018-12-14T21:37:38.124Z,-0.40
2018-12-14T21:40:07.823Z,-0.50
2018-12-14T21:42:36.974Z,-0.40
2018-12-14T21:45:06.443Z,-0.40
2018-12-14T21:47:35.737Z,-0.40
2018-12-14T21:50:08.551Z,-0.40
2018-12-14T21:53:03.661Z,-0.40
2018-12-14T21:55:33.849Z,-0.40
2018-12-14T21:58:03.489Z,-0.40
2018-12-14T22:00:36.160Z,-0.40
2018-12-14T22:03:06.806Z,-0.40
2018-12-14T22:05:41.331Z,-0.40
2018-12-14T22:08:10.680Z,-0.40
2018-12-14T22:10:40.181Z,-0.40
2018-12-14T22:13:10.081Z,-0.40
2018-12-14T22:15:38.961Z,-0.30
2018-12-14T22:18:08.467Z,-0.40
2018-12-14T22:20:39.467Z,-0.40
2018-12-14T22:23:08.915Z,-0.40
2018-12-14T22:25:37.940Z,-0.40
2018-12-14T22:28:08.005Z,-0.40
2018-12-14T22:30:39.551Z,-0.30
2018-12-14T22:33:09.361Z,-0.30
2018-12-14T22:35:39.613Z,-0.30
2018-12-14T22:38:11.751Z,-0.30
2018-12-14T22:40:41.066Z,-0.30
2018-12-14T22:43:11.782Z,-0.30
2018-12-14T22:45:43.265Z,-0.30
2018-12-14T22:48:13.629Z,-0.30
2018-12-14T22:51:03.069Z,-0.30
2018-12-14T22:53:33.455Z,-0.30
2018-12-14T22:56:02.831Z,-0.30
2018-12-14T22:58:32.679Z,-0.30
2018-12-14T23:01:12.071Z,-0.30
2018-12-14T23:03:43.404Z,-0.30
2018-12-14T23:06:14.002Z,-0.30
2018-12-14T23:08:44.448Z,-0.30
2018-12-14T23:11:14.577Z,-0.20
2018-12-14T23:13:44.154Z,-0.30
2018-12-14T23:16:16.020Z,-0.30
2018-12-14T23:18:46.315Z,-0.30
2018-12-14T23:21:16.349Z,-0.20
2018-12-14T23:23:47.061Z,-0.30
2018-12-14T23:26:16.088Z,-0.20
2018-12-14T23:28:46.698Z,-0.30
2018-12-14T23:31:16.851Z,-0.20
2018-12-14T23:33:48.851Z,-0.20
2018-12-14T23:36:18.736Z,-0.20
2018-12-14T23:38:51.635Z,-0.20
2018-12-14T23:41:23.398Z,-0.20
2018-12-14T23:43:53.433Z,-0.20
2018-12-14T23:46:24.006Z,-0.20
2018-12-14T23:48:54.130Z,-0.30
2018-12-14T23:51:24.040Z,-0.20
2018-12-14T23:53:54.047Z,-0.20
2018-12-14T23:56:23.074Z,-0.20
2018-12-14T23:58:53.439Z,-0.30
